Time;durP1;ratioP1;P1;durP2;ratioP2;P2;SDS_P1;SDS_P2;PMS_P1;PMS_P2;Temp;Humidity;BMP_temperature;BMP_pressure;BME280_temperature;BME280_humidity;BME280_pressure;Samples;Min_cycle;Max_cycle;Signal;HPM_P1;HPM_P2
2024/04/11 00:04:15;;;;;;;3.95;1.67;;;;;;;6.15;56.89;101465.66;11308720;26;20107;-63
2024/04/11 00:09:19;;;;;;;4.60;1.63;;;;;;;5.95;56.73;101470.34;11327194;26;20017;-63
2024/04/11 00:14:22;;;;;;;3.50;1.63;;;;;;;5.90;57.11;101456.56;11327297;26;20017;-62
2024/04/11 00:19:25;;;;;;;8.38;1.60;;;;;;;5.96;57.16;101461.66;11325013;26;20082;-62
2024/04/11 00:24:27;;;;;;;2.30;1.13;;;;;;;5.96;57.20;101450.44;11326221;26;20002;-62
2024/04/11 00:29:31;;;;;;;2.13;1.33;;;;;;;5.96;57.06;101453.88;11324818;26;20053;-62
2024/04/11 00:34:38;;;;;;;3.17;1.02;;;;;;;5.86;57.23;101454.91;11326460;26;20069;-61
2024/04/11 00:39:41;;;;;;;3.28;1.40;;;;;;;5.83;57.44;101451.50;11319303;26;20002;-62
2024/04/11 00:44:43;;;;;;;7.00;1.70;;;;;;;5.81;57.31;101454.13;11325641;26;20465;-62
2024/04/11 00:49:47;;;;;;;3.05;1.60;;;;;;;5.76;57.37;101447.31;11294345;26;20869;-62
2024/04/11 00:54:50;;;;;;;8.90;1.50;;;;;;;5.49;57.43;101448.59;11330880;26;19998;-62
2024/04/11 00:59:53;;;;;;;2.35;1.45;;;;;;;5.27;57.78;101442.84;11331241;26;20006;-62
2024/04/11 01:04:59;;;;;;;6.03;1.83;;;;;;;5.21;57.63;101442.06;11329521;26;20002;-62
2024/04/11 01:10:07;;;;;;;5.15;2.15;;;;;;;5.13;57.92;101449.09;11332632;26;19998;-61
2024/04/11 01:15:13;;;;;;;4.47;2.00;;;;;;;5.25;58.09;101435.94;11330146;26;20427;-63
2024/04/11 01:20:16;;;;;;;7.40;2.28;;;;;;;5.29;57.84;101440.22;11326667;26;20017;-62
2024/04/11 01:25:19;;;;;;;3.13;1.70;;;;;;;5.28;57.96;101443.69;11329705;26;20059;-62
2024/04/11 01:30:22;;;;;;;3.80;1.40;;;;;;;4.98;58.10;101452.75;11332513;26;19998;-62
2024/04/11 01:35:24;;;;;;;3.72;1.42;;;;;;;5.06;58.17;101452.66;11331266;26;20006;-61
2024/04/11 01:40:29;;;;;;;5.75;1.85;;;;;;;5.14;57.99;101456.00;11331687;26;20070;-62
2024/04/11 01:45:32;;;;;;;3.17;1.33;;;;;;;5.11;58.20;101453.44;11329876;26;20002;-62
2024/04/11 01:50:39;;;;;;;4.47;1.40;;;;;;;5.10;58.08;101460.38;11330111;26;20759;-62
2024/04/11 01:55:44;;;;;;;2.72;1.35;;;;;;;5.00;58.23;101452.72;11331451;26;20002;-62
2024/04/11 02:00:47;;;;;;;3.15;1.33;;;;;;;4.91;57.92;101456.28;11330010;26;20010;-61
2024/04/11 02:05:51;;;;;;;2.17;1.30;;;;;;;4.82;58.32;101460.75;11329927;26;20017;-62
2024/04/11 02:10:54;;;;;;;6.82;1.85;;;;;;;4.81;58.30;101472.84;11298778;26;20124;-62
2024/04/11 02:15:57;;;;;;;4.95;1.70;;;;;;;4.88;58.29;101489.19;11328947;26;20009;-62
2024/04/11 02:21:00;;;;;;;2.55;1.50;;;;;;;4.87;58.44;101487.44;11326856;26;20034;-62
2024/04/11 02:26:03;;;;;;;10.45;2.15;;;;;;;4.83;58.41;101491.81;11296747;26;20350;-62
2024/04/11 02:31:05;;;;;;;2.50;1.25;;;;;;;4.70;58.40;101485.03;11329826;26;20091;-62
2024/04/11 02:36:08;;;;;;;7.07;2.05;;;;;;;4.65;58.56;101492.03;11327257;26;20449;-62
2024/04/11 02:41:11;;;;;;;3.30;1.30;;;;;;;4.73;58.43;101495.41;11329830;26;20006;-62
2024/04/11 02:46:16;;;;;;;3.58;1.63;;;;;;;4.73;58.39;101485.03;11328757;26;20767;-63
2024/04/11 02:51:20;;;;;;;3.33;1.63;;;;;;;4.72;58.33;101508.38;11327590;26;20013;-62
2024/04/11 02:56:23;;;;;;;4.43;1.90;;;;;;;4.70;58.38;101510.97;11297700;26;20006;-62
2024/04/11 03:01:26;;;;;;;3.22;1.50;;;;;;;4.61;58.55;101506.75;11327219;26;19998;-62
2024/04/11 03:06:31;;;;;;;7.75;1.38;;;;;;;4.53;58.35;101503.38;11329466;26;20009;-61
2024/04/11 03:11:34;;;;;;;3.80;1.17;;;;;;;4.47;58.63;101503.44;11326965;26;20022;-62
2024/04/11 03:16:37;;;;;;;5.05;1.88;;;;;;;4.44;58.45;101520.72;11329142;26;20057;-62
2024/04/11 03:21:40;;;;;;;7.75;1.70;;;;;;;4.45;58.72;101525.06;11326108;26;20002;-62
2024/04/11 03:26:43;;;;;;;6.00;1.30;;;;;;;4.40;58.53;101514.72;11326689;26;20342;-62
2024/04/11 03:31:46;;;;;;;10.75;2.78;;;;;;;4.33;58.48;101515.66;11296082;26;20012;-62
2024/04/11 03:36:53;;;;;;;5.05;1.50;;;;;;;4.27;58.62;101531.25;11328526;26;20462;-62
2024/04/11 03:41:56;;;;;;;2.30;1.33;;;;;;;4.22;58.90;101532.16;11297785;26;20025;-62
2024/04/11 03:46:58;;;;;;;6.70;1.63;;;;;;;4.14;58.95;101527.06;11295713;26;20074;-62
2024/04/11 03:52:05;;;;;;;1.67;1.10;;;;;;;4.15;58.96;101531.34;11328164;26;20002;-62
2024/04/11 03:57:08;;;;;;;3.50;1.67;;;;;;;4.08;58.80;101541.78;11325851;26;20013;-61
2024/04/11 04:02:11;;;;;;;2.10;1.35;;;;;;;4.10;59.13;101540.91;11327173;26;20075;-61
2024/04/11 04:07:14;;;;;;;2.75;1.30;;;;;;;4.19;58.88;101540.81;11327010;26;20002;-62
2024/04/11 04:12:16;;;;;;;2.47;1.23;;;;;;;4.17;58.84;101537.38;11324826;26;20038;-62
2024/04/11 04:17:19;;;;;;;1.80;1.35;;;;;;;4.16;58.82;101547.75;11295442;26;19998;-61
2024/04/11 04:22:22;;;;;;;9.95;1.25;;;;;;;4.10;58.94;101547.81;11326100;26;20327;-62
2024/04/11 04:27:25;;;;;;;6.35;1.65;;;;;;;4.10;58.81;101540.91;11325477;26;20457;-62
2024/04/11 04:32:27;;;;;;;3.25;1.45;;;;;;;4.11;58.72;101537.41;11325798;26;20020;-61
2024/04/11 04:37:30;;;;;;;4.70;1.40;;;;;;;4.11;58.89;101552.97;11326189;26;19998;-61
2024/04/11 04:42:34;;;;;;;2.38;1.38;;;;;;;4.17;58.65;101544.31;11325039;26;20006;-62
2024/04/11 04:47:40;;;;;;;2.63;1.30;;;;;;;4.15;58.62;101548.63;11323175;26;20330;-62
2024/04/11 04:52:43;;;;;;;1.98;1.25;;;;;;;4.17;58.55;101559.84;11295151;26;19998;-62
2024/04/11 04:57:46;;;;;;;4.63;1.45;;;;;;;4.27;58.74;101558.91;11325538;26;20353;-62
2024/04/11 05:02:48;;;;;;;2.78;1.42;;;;;;;4.41;58.70;101567.41;11324027;26;20003;-62
2024/04/11 05:07:52;;;;;;;2.45;1.95;;;;;;;4.56;58.19;101578.47;11325067;26;19998;-62
2024/04/11 05:12:59;;;;;;;3.55;1.63;;;;;;;4.71;58.07;101572.31;11292767;26;20006;-62
2024/04/11 05:18:02;;;;;;;2.15;1.40;;;;;;;4.95;57.97;101571.19;11325333;26;20062;-62
2024/04/11 05:23:06;;;;;;;5.15;2.00;;;;;;;5.08;57.90;101572.78;11321835;26;19998;-62
2024/04/11 05:28:08;;;;;;;2.83;1.58;;;;;;;5.27;57.66;101572.53;11324320;26;20118;-62
2024/04/11 05:33:13;;;;;;;2.88;1.55;;;;;;;5.47;57.31;101573.13;11323998;26;20461;-62
2024/04/11 05:38:17;;;;;;;2.35;1.40;;;;;;;5.68;57.47;101568.53;11322125;26;20599;-62
2024/04/11 05:43:21;;;;;;;2.47;1.40;;;;;;;5.80;56.94;101573.59;11321023;26;20462;-62
2024/04/11 05:48:38;;;;;;;5.68;1.75;;;;;;;5.91;56.98;101567.34;11324100;26;20055;-62
2024/04/11 05:53:41;;;;;;;2.55;1.45;;;;;;;6.21;56.64;101572.06;11295275;26;20397;-61
2024/04/11 05:58:45;;;;;;;2.70;1.63;;;;;;;6.46;56.56;101558.69;11324248;26;20013;-61
2024/04/11 06:03:50;;;;;;;3.53;1.70;;;;;;;6.89;56.14;101560.50;11321588;26;20013;-61
2024/04/11 06:08:55;;;;;;;5.35;1.40;;;;;;;6.84;55.99;101553.66;11323007;26;20003;-61
2024/04/11 06:13:58;;;;;;;3.00;1.73;;;;;;;6.90;56.15;101543.16;11290681;26;20490;-61
2024/04/11 06:19:01;;;;;;;7.38;2.15;;;;;;;6.99;55.88;101537.78;11321313;26;20031;-61
2024/04/11 06:24:04;;;;;;;7.18;1.80;;;;;;;7.30;55.36;101536.28;11261630;26;20032;-61
2024/04/11 06:29:11;;;;;;;3.67;1.40;;;;;;;7.51;55.26;101528.00;11322886;26;20030;-62
2024/04/11 06:34:14;;;;;;;2.75;1.50;;;;;;;7.59;55.05;101525.25;11318579;26;20070;-61
2024/04/11 06:39:17;;;;;;;2.28;1.40;;;;;;;7.67;55.06;101531.13;11321465;26;20422;-62
2024/04/11 06:44:20;;;;;;;2.97;1.60;;;;;;;7.71;54.64;101531.00;11317380;26;20001;-63
2024/04/11 06:49:22;;;;;;;2.67;1.40;;;;;;;7.83;54.36;101540.31;11320999;26;20071;-62
2024/04/11 06:54:27;;;;;;;2.95;1.17;;;;;;;8.49;53.84;101538.69;11320945;26;20046;-63
2024/04/11 06:59:30;;;;;;;3.03;1.50;;;;;;;8.87;53.56;101537.69;11320555;26;20369;-62
2024/04/11 07:04:33;;;;;;;4.43;1.65;;;;;;;8.87;53.70;101535.09;11321370;26;20001;-62
2024/04/11 07:09:38;;;;;;;2.95;1.70;;;;;;;9.20;53.62;101543.72;11320869;26;20010;-62
2024/04/11 07:14:41;;;;;;;3.17;1.58;;;;;;;9.42;52.66;101558.69;11320323;26;20482;-62
2024/04/11 07:19:44;;;;;;;3.05;1.45;;;;;;;9.63;52.54;101563.31;11320331;26;19998;-62
2024/04/11 07:24:47;;;;;;;2.72;1.70;;;;;;;9.76;52.37;101565.56;11319787;26;20404;-64
2024/04/11 07:29:50;;;;;;;6.13;1.60;;;;;;;9.94;51.77;101559.78;11291144;26;20138;-63
2024/04/11 07:34:53;;;;;;;2.58;1.55;;;;;;;10.08;51.56;101560.19;11319849;26;20019;-63
2024/04/11 07:40:00;;;;;;;13.25;2.05;;;;;;;10.37;51.59;101566.22;11320833;26;20002;-62
2024/04/11 07:45:05;;;;;;;2.65;1.65;;;;;;;10.60;50.92;101569.81;11321216;26;20006;-62
2024/04/11 07:50:08;;;;;;;3.38;1.52;;;;;;;11.35;50.09;101561.03;11291739;26;19998;-62
2024/04/11 07:55:14;;;;;;;2.65;1.45;;;;;;;12.37;48.05;101556.13;11321316;26;20002;-63
2024/04/11 08:00:20;;;;;;;4.32;1.55;;;;;;;13.32;46.96;101538.78;11320325;26;20430;-63
2024/04/11 08:05:28;;;;;;;4.88;1.40;;;;;;;14.18;45.90;101545.22;11317722;26;20009;-63
2024/04/11 08:10:32;;;;;;;3.80;1.50;;;;;;;14.48;45.56;101541.91;11318796;26;19998;-63
2024/04/11 08:15:35;;;;;;;4.00;1.58;;;;;;;14.11;45.66;101554.31;11320088;26;20006;-63
2024/04/11 08:20:38;;;;;;;4.05;1.67;;;;;;;13.78;45.49;101554.16;11320392;26;20447;-63
2024/04/11 08:25:41;;;;;;;4.78;1.50;;;;;;;14.08;45.64;101550.06;11319490;26;20443;-63
2024/04/11 08:30:47;;;;;;;3.05;1.65;;;;;;;14.37;44.26;101557.38;11316460;26;20013;-63
2024/04/11 08:35:53;;;;;;;3.55;1.77;;;;;;;14.46;45.06;101575.34;11318746;26;20080;-63
2024/04/11 08:40:57;;;;;;;2.17;1.25;;;;;;;14.74;44.79;101571.34;11321022;26;20005;-63
2024/04/11 08:46:08;;;;;;;2.92;1.33;;;;;;;14.84;45.03;101578.69;11319730;26;20031;-63
2024/04/11 08:51:20;;;;;;;4.10;1.50;;;;;;;14.82;45.00;101577.09;11318480;26;20447;-64
2024/04/11 08:56:23;;;;;;;4.30;1.40;;;;;;;14.53;45.21;101579.41;11319626;26;20065;-61
2024/04/11 09:01:26;;;;;;;1.30;1.05;;;;;;;14.58;44.76;101587.06;11291544;26;20014;-62
2024/04/11 09:06:30;;;;;;;3.53;1.10;;;;;;;14.58;43.27;101589.72;11324715;26;21412;-61
2024/04/11 09:11:33;;;;;;;3.22;1.88;;;;;;;14.96;42.69;101587.78;11326244;26;20446;-62
2024/04/11 09:16:36;;;;;;;1.55;0.70;;;;;;;15.03;41.73;101587.38;11332258;26;20021;-61
2024/04/11 09:21:46;;;;;;;1.67;0.80;;;;;;;15.19;39.44;101584.78;11332684;26;20017;-62
2024/04/11 09:26:48;;;;;;;2.20;0.73;;;;;;;15.59;39.90;101589.66;11331715;26;20002;-62
2024/04/11 09:31:56;;;;;;;2.45;0.52;;;;;;;15.70;36.87;101582.00;11299546;26;20005;-62
2024/04/11 09:37:03;;;;;;;1.55;0.65;;;;;;;15.80;38.86;101582.34;11332028;26;20002;-62
2024/04/11 09:42:19;;;;;;;1.63;0.80;;;;;;;15.94;35.19;101593.84;11330081;26;19998;-62
2024/04/11 09:47:31;;;;;;;1.45;0.70;;;;;;;16.14;37.43;101595.38;11331116;26;20544;-62
2024/04/11 09:52:34;;;;;;;1.10;0.82;;;;;;;16.34;37.42;101595.09;11332394;26;20002;-62
2024/04/11 09:57:43;;;;;;;2.05;0.85;;;;;;;16.68;35.48;101588.72;11298631;26;20014;-62
2024/04/11 10:02:52;;;;;;;2.22;0.82;;;;;;;16.99;35.38;101588.59;11329217;26;20038;-62
2024/04/11 10:08:01;;;;;;;;;;;;;;;17.16;33.98;101591.06;11330302;26;20002;-62
2024/04/11 10:13:04;;;;;;;3.25;0.63;;;;;;;17.32;36.03;101591.84;11329019;26;19924;-62
2024/04/11 10:18:11;;;;;;;1.52;0.82;;;;;;;17.34;34.06;101584.72;11331378;26;20043;-62
2024/04/11 10:23:24;;;;;;;1.20;0.80;;;;;;;17.24;34.63;101591.44;11330359;26;20294;-62
2024/04/11 10:28:56;;;;;;;2.22;0.80;;;;;;;17.23;34.89;101580.97;11324565;26;20022;-62
2024/04/11 10:33:59;;;;;;;4.30;1.23;;;;;;;17.45;35.07;101587.53;11330593;26;20031;-63
2024/04/11 10:39:08;;;;;;;1.85;1.08;;;;;;;17.34;35.75;101587.34;11331007;26;20079;-62
2024/04/11 10:44:11;;;;;;;1.98;0.90;;;;;;;17.58;35.32;101585.81;11328834;26;20006;-62
2024/04/11 10:49:15;;;;;;;1.23;0.80;;;;;;;17.90;35.02;101574.97;11329245;26;19998;-62
2024/04/11 10:54:18;;;;;;;2.67;1.02;;;;;;;18.04;34.76;101567.84;11328644;26;20013;-62
2024/04/11 10:59:22;;;;;;;1.80;0.65;;;;;;;18.20;34.40;101565.94;11328990;26;20391;-62
2024/04/11 11:04:26;;;;;;;5.22;1.25;;;;;;;18.21;34.34;101559.69;11328415;26;19998;-64
2024/04/11 11:09:30;;;;;;;1.40;0.77;;;;;;;18.33;33.25;101550.94;11293429;26;20006;-63
2024/04/11 11:14:32;;;;;;;3.17;1.30;;;;;;;18.60;34.01;101542.94;11298377;26;20639;-63
2024/04/11 11:19:35;;;;;;;4.40;0.90;;;;;;;18.75;33.99;101546.34;11327094;26;20087;-63
2024/04/11 11:24:38;;;;;;;2.55;0.88;;;;;;;18.80;33.78;101545.06;11327080;26;19998;-63
2024/04/11 11:29:48;;;;;;;3.05;0.65;;;;;;;18.70;33.67;101549.31;11319015;26;20017;-63
2024/04/11 11:34:51;;;;;;;2.10;0.75;;;;;;;18.61;33.66;101532.22;11319947;26;19998;-63
2024/04/11 11:39:57;;;;;;;1.00;0.70;;;;;;;18.65;33.55;101530.22;11283907;26;20002;-63
2024/04/11 11:50:09;;;;;;;3.28;0.90;;;;;;;18.99;33.34;101537.53;11309845;26;20006;-63
2024/04/11 11:55:19;;;;;;;3.42;1.38;;;;;;;19.16;33.11;101531.94;11307704;26;20444;-61
2024/04/11 12:00:24;;;;;;;2.40;1.00;;;;;;;19.58;32.77;101525.41;11306423;26;20461;-63
2024/04/11 12:05:28;;;;;;;1.83;0.70;;;;;;;19.77;32.15;101524.91;11308304;26;20056;-62
2024/04/11 12:11:14;;;;;;;2.75;0.60;;;;;;;19.73;32.38;101518.97;11318868;26;20014;-62
2024/04/11 12:15:55;;;;;;;1.02;0.50;;;;;;;20.14;31.97;101503.53;11316481;26;20022;-62
2024/04/11 12:20:58;;;;;;;4.70;0.90;;;;;;;20.07;32.03;101502.28;11318341;26;20012;-63
2024/04/11 12:26:00;;;;;;;2.00;0.70;;;;;;;20.31;31.79;101494.28;11317574;26;20331;-63
2024/04/11 12:31:07;;;;;;;1.58;0.82;;;;;;;20.41;32.15;101489.97;11317972;26;20833;-62
2024/04/11 12:41:36;;;;;;;3.38;1.30;;;;;;;20.75;31.04;101497.06;11319478;26;20002;-62
2024/04/11 12:46:49;;;;;;;1.88;0.82;;;;;;;20.21;30.57;101491.47;11318831;26;20226;-62
2024/04/11 12:52:00;;;;;;;1.27;0.73;;;;;;;20.25;31.65;101495.56;11318589;26;20336;-62
2024/04/11 12:57:06;;;;;;;2.78;0.60;;;;;;;19.98;31.87;101494.16;11318864;26;20002;-62
2024/04/11 13:02:10;;;;;;;3.70;0.90;;;;;;;20.24;32.20;101485.06;11315175;26;20761;-62
2024/04/11 13:07:12;;;;;;;4.75;1.05;;;;;;;20.65;31.85;101490.78;11316218;26;19998;-63
2024/04/11 13:12:19;;;;;;;4.80;0.77;;;;;;;20.56;31.76;101485.28;11318128;26;20438;-63
2024/04/11 13:17:23;;;;;;;4.85;1.85;;;;;;;20.07;32.17;101486.34;11316366;26;20013;-64
2024/04/11 13:22:26;;;;;;;1.15;0.70;;;;;;;20.00;32.24;101474.50;11317222;26;19998;-62
2024/04/11 13:27:29;;;;;;;3.38;0.98;;;;;;;20.29;30.90;101467.00;11316148;26;20010;-63
2024/04/11 13:32:31;;;;;;;1.98;1.15;;;;;;;20.07;32.25;101451.81;11316488;26;19998;-63
2024/04/11 13:37:37;;;;;;;2.70;0.98;;;;;;;20.17;32.47;101463.44;11310968;26;20002;-63
2024/04/11 13:42:41;;;;;;;2.03;0.82;;;;;;;20.06;32.79;101459.91;11314557;26;20009;-62
2024/04/11 13:47:43;;;;;;;1.52;0.80;;;;;;;20.26;32.78;101456.56;11315548;26;19999;-63
2024/04/11 13:52:50;;;;;;;2.35;0.50;;;;;;;20.21;32.52;101450.78;11316535;26;20458;-62
2024/04/11 13:57:52;;;;;;;1.67;0.73;;;;;;;20.45;32.22;101448.91;11315858;26;20362;-62
2024/04/11 14:03:16;;;;;;;1.25;0.60;;;;;;;20.46;32.82;101439.13;11318123;26;19998;-63
2024/04/11 14:08:19;;;;;;;2.05;0.75;;;;;;;20.53;32.77;101443.00;11321509;26;20013;-62
2024/04/11 14:13:22;;;;;;;1.30;0.85;;;;;;;20.73;32.70;101442.31;11322651;26;20392;-62
2024/04/11 14:18:28;;;;;;;2.90;1.13;;;;;;;20.87;32.69;101445.59;11291531;26;20487;-60
2024/04/11 14:23:52;;;;;;;1.50;0.90;;;;;;;21.01;32.33;101440.03;11320736;26;20423;-60
2024/04/11 14:28:55;;;;;;;1.17;0.98;;;;;;;20.23;33.01;101446.19;11316065;26;20519;-61
2024/04/11 14:39:08;;;;;;;3.95;0.77;;;;;;;20.21;33.77;101442.81;11322668;26;20009;-61
2024/04/11 14:44:11;;;;;;;0.70;0.47;;;;;;;19.98;34.34;101439.25;11323287;26;20076;-61
2024/04/11 14:49:16;;;;;;;4.45;1.20;;;;;;;19.98;34.23;101449.00;11321929;26;19998;-61
2024/04/11 14:54:25;;;;;;;4.53;1.60;;;;;;;20.21;34.43;101448.94;11292094;26;20017;-61
2024/04/11 14:59:31;;;;;;;1.63;0.95;;;;;;;20.22;34.87;101440.03;11263662;26;20128;-61
2024/04/11 15:04:37;;;;;;;2.30;1.15;;;;;;;20.21;34.70;101429.53;11322132;26;20016;-61
2024/04/11 15:09:45;;;;;;;1.55;0.50;;;;;;;20.46;34.82;101434.63;11319468;26;20332;-61
2024/04/11 15:14:48;;;;;;;1.20;0.60;;;;;;;20.75;34.62;101440.38;11316871;26;20006;-61
2024/04/11 15:19:52;;;;;;;1.70;1.33;;;;;;;20.55;34.87;101436.59;11316473;26;20461;-61
2024/04/11 15:24:59;;;;;;;1.20;0.47;;;;;;;20.54;34.84;101437.53;11327248;26;20002;-61
2024/04/11 15:30:04;;;;;;;1.42;0.70;;;;;;;20.16;35.34;101431.69;11324420;26;20047;-61
2024/04/11 15:35:09;;;;;;;2.78;0.55;;;;;;;19.96;35.51;101417.25;11324130;26;20017;-61
2024/04/11 15:40:22;;;;;;;1.27;0.70;;;;;;;19.65;35.85;101417.81;11325090;26;20012;-62
2024/04/11 15:45:29;;;;;;;11.75;3.78;;;;;;;19.53;36.17;101423.19;11323093;26;20006;-61
2024/04/11 15:50:36;;;;;;;9.75;4.43;;;;;;;19.45;36.68;101429.06;11324672;26;20115;-61
2024/04/11 15:55:48;;;;;;;11.07;4.25;;;;;;;19.39;36.59;101418.88;11328034;26;19998;-60
2024/04/11 16:00:55;;;;;;;4.88;2.00;;;;;;;19.45;36.63;101421.94;11327522;26;20009;-61
2024/04/11 16:06:01;;;;;;;5.28;2.20;;;;;;;19.74;36.83;101426.91;11326130;26;20014;-61
2024/04/11 16:11:06;;;;;;;7.33;1.73;;;;;;;19.97;36.20;101423.44;11321909;26;20006;-61
2024/04/11 16:16:10;;;;;;;3.17;1.27;;;;;;;19.98;35.94;101423.31;11325514;26;20487;-62
2024/04/11 16:21:13;;;;;;;10.15;2.78;;;;;;;19.97;36.18;101418.13;11325649;26;20454;-62
2024/04/11 16:26:19;;;;;;;3.75;1.40;;;;;;;20.11;36.24;101412.59;11310078;26;19998;-62
2024/04/11 16:31:28;;;;;;;4.15;1.63;;;;;;;20.16;36.27;101398.00;11323947;26;20002;-61
2024/04/11 16:36:35;;;;;;;1.52;0.88;;;;;;;20.16;36.23;101392.69;11324545;26;20021;-61
2024/04/11 16:41:38;;;;;;;4.53;1.30;;;;;;;20.39;35.97;101398.88;11325873;26;20006;-61
2024/04/11 16:46:41;;;;;;;3.25;1.10;;;;;;;20.78;35.57;101403.78;11325213;26;20026;-62
2024/04/11 16:51:43;;;;;;;2.33;1.00;;;;;;;20.44;36.03;101403.84;11323040;26;20002;-62
2024/04/11 16:56:49;;;;;;;1.55;0.90;;;;;;;20.11;36.34;101397.50;11325020;26;20016;-62
2024/04/11 17:01:55;;;;;;;4.82;0.80;;;;;;;19.41;37.07;101409.88;11324891;26;20017;-62
2024/04/11 17:07:12;;;;;;;1.13;0.60;;;;;;;19.04;37.80;101402.00;11323518;26;20461;-62
2024/04/11 17:12:17;;;;;;;2.35;0.57;;;;;;;18.60;38.61;101413.94;11320024;26;20072;-60
2024/04/11 17:17:28;;;;;;;2.03;0.65;;;;;;;18.45;38.95;101422.94;11317602;26;19998;-61
2024/04/11 17:22:50;;;;;;;1.73;0.70;;;;;;;18.35;39.02;101426.34;11323039;26;20010;-61
2024/04/11 17:27:53;;;;;;;0.82;0.47;;;;;;;18.16;39.64;101425.84;11268299;26;20102;-61
2024/04/11 17:32:59;;;;;;;2.55;1.00;;;;;;;18.07;39.84;101418.53;11311894;26;20010;-61
2024/04/11 17:38:09;;;;;;;6.32;1.60;;;;;;;17.98;40.28;101412.06;11289743;26;20339;-62
2024/04/11 17:43:27;;;;;;;2.17;1.13;;;;;;;17.89;40.49;101423.28;11323830;26;20013;-62
2024/04/11 17:48:40;;;;;;;3.50;1.48;;;;;;;17.70;41.29;101423.63;11325333;26;20008;-61
2024/04/11 17:53:47;;;;;;;2.53;1.00;;;;;;;17.57;41.23;101433.31;11325822;26;20034;-62
2024/04/11 17:58:54;;;;;;;2.25;0.70;;;;;;;17.26;41.87;101440.66;11322745;26;20013;-61
2024/04/11 18:04:06;;;;;;;1.70;0.82;;;;;;;17.06;42.00;101435.78;11325885;26;20087;-61
2024/04/11 18:09:13;;;;;;;1.65;0.98;;;;;;;17.03;42.86;101437.69;11326256;26;20537;-62
2024/04/11 18:14:28;;;;;;;2.42;1.25;;;;;;;17.00;43.43;101424.63;11292052;26;20084;-59
2024/04/11 18:19:36;;;;;;;6.03;1.83;;;;;;;16.86;43.64;101426.44;11329986;26;20397;-59
2024/04/11 18:24:46;;;;;;;3.13;1.45;;;;;;;16.83;44.09;101429.28;11328689;26;20002;-59
2024/04/11 18:29:55;;;;;;;;;;;;;;;16.70;44.58;101429.19;11328601;26;20444;-59
2024/04/11 18:34:58;;;;;;;3.00;1.58;;;;;;;16.78;43.98;101444.56;11329616;26;19924;-59
2024/04/11 18:40:01;;;;;;;2.45;1.20;;;;;;;16.69;44.48;101437.22;11329868;26;21195;-59
2024/04/11 18:45:17;;;;;;;3.92;1.45;;;;;;;16.60;45.18;101454.47;11326813;26;20002;-59
2024/04/11 18:50:23;;;;;;;2.88;1.45;;;;;;;16.35;45.55;101469.19;11328980;26;20002;-59
2024/04/11 18:55:27;;;;;;;4.00;1.73;;;;;;;16.32;45.66;101483.44;11327248;26;20008;-59
2024/04/11 19:00:31;;;;;;;2.25;1.40;;;;;;;16.33;46.07;101485.13;11326558;26;20006;-59
2024/04/11 19:05:33;;;;;;;3.75;1.10;;;;;;;16.27;46.20;101487.28;11328842;26;20009;-59
2024/04/11 19:10:41;;;;;;;3.85;1.50;;;;;;;16.06;46.97;101489.41;11323425;26;20021;-59
2024/04/11 19:15:47;;;;;;;1.77;1.02;;;;;;;16.00;46.50;101492.34;11322037;26;20002;-59
2024/04/11 19:20:54;;;;;;;3.40;0.82;;;;;;;16.02;46.42;101499.25;11319998;26;20002;-59
2024/04/11 19:25:59;;;;;;;2.17;0.65;;;;;;;15.94;46.75;101490.94;11312353;26;20560;-59
2024/04/11 19:31:07;;;;;;;1.90;1.10;;;;;;;15.85;47.13;101485.34;11320149;26;20006;-59
2024/04/11 19:36:14;;;;;;;3.88;1.38;;;;;;;15.71;47.91;101488.78;11315775;26;20010;-59
2024/04/11 19:41:22;;;;;;;4.13;1.50;;;;;;;15.53;48.03;101479.22;11268077;26;20006;-59
2024/04/11 19:46:29;;;;;;;3.20;1.30;;;;;;;15.37;48.22;101484.47;11323257;26;20009;-59
2024/04/11 19:51:35;;;;;;;2.90;1.30;;;;;;;15.00;48.82;101494.47;11319717;26;20352;-59
2024/04/11 19:56:40;;;;;;;6.85;1.55;;;;;;;14.67;49.48;101502.34;11320039;26;20006;-59
2024/04/11 20:01:51;;;;;;;2.30;0.90;;;;;;;14.53;50.10;101503.06;11315513;26;20017;-59
2024/04/11 20:07:01;;;;;;;2.75;0.82;;;;;;;14.48;50.27;101498.94;11319073;26;20003;-59
2024/04/11 20:12:16;;;;;;;4.68;1.30;;;;;;;14.43;50.48;101499.16;11317959;26;20032;-59
2024/04/11 20:17:30;;;;;;;2.85;0.98;;;;;;;14.31;50.88;101507.66;11318162;26;20086;-59
2024/04/11 20:22:39;;;;;;;2.50;1.10;;;;;;;14.23;51.14;101522.13;11322952;26;20002;-59
2024/04/11 20:27:46;;;;;;;0.77;0.70;;;;;;;14.13;50.75;101527.00;11318714;26;20017;-59
2024/04/11 20:32:55;;;;;;;3.08;1.00;;;;;;;14.03;51.50;101530.16;11307238;26;20037;-59
2024/04/11 20:38:15;;;;;;;2.35;1.00;;;;;;;13.93;51.79;101528.91;11316491;26;20013;-59
2024/04/11 20:43:36;;;;;;;5.35;2.20;;;;;;;13.70;52.37;101527.38;11290836;26;20069;-59
2024/04/11 20:49:04;;;;;;;;;;;;;;;13.53;54.33;101532.59;11321484;26;20017;-59
2024/04/11 21:37:15;;;;;;;3.58;1.75;;;;;;;12.85;54.52;101520.75;11316108;26;20004;-59
2024/04/11 21:42:21;;;;;;;3.78;1.73;;;;;;;12.78;54.99;101528.97;11320085;26;20010;-59
2024/04/11 21:47:27;;;;;;;2.97;1.67;;;;;;;12.71;55.18;101530.16;11313566;26;20014;-59
2024/04/11 21:52:36;;;;;;;2.75;1.33;;;;;;;12.65;55.13;101536.53;11318483;26;20470;-59
2024/04/11 21:57:40;;;;;;;1.88;1.20;;;;;;;12.60;55.39;101541.09;11327637;26;20002;-59
2024/04/11 22:02:46;;;;;;;1.63;1.10;;;;;;;12.50;55.29;101534.53;11323570;26;20087;-59
2024/04/11 22:07:58;;;;;;;1.98;1.20;;;;;;;12.43;55.37;101537.50;11320658;26;20542;-59
2024/04/11 22:13:05;;;;;;;2.28;1.17;;;;;;;12.39;55.58;101534.16;11324944;26;19998;-59
2024/04/11 22:18:27;;;;;;;1.58;0.95;;;;;;;12.28;55.55;101544.22;11319332;26;19994;-59
2024/04/11 22:23:32;;;;;;;1.90;1.00;;;;;;;12.22;55.92;101548.84;11299107;26;19998;-59
2024/04/11 22:28:39;;;;;;;2.83;1.30;;;;;;;12.14;56.00;101554.41;11326912;26;20446;-59
2024/04/11 22:33:48;;;;;;;2.05;1.08;;;;;;;12.00;55.73;101543.63;11327219;26;20013;-59
2024/04/11 22:39:00;;;;;;;4.30;1.75;;;;;;;11.85;56.61;101549.47;11326468;26;20012;-59
2024/04/11 22:44:03;;;;;;;3.05;1.50;;;;;;;11.80;56.42;101546.19;11321563;26;20042;-59
2024/04/11 22:49:15;;;;;;;2.00;1.20;;;;;;;11.49;57.14;101548.25;11325055;26;20001;-59
2024/04/11 22:54:22;;;;;;;2.38;1.10;;;;;;;11.31;57.22;101562.91;11324331;26;20327;-58
2024/04/11 23:04:42;;;;;;;2.55;1.00;;;;;;;11.53;57.22;101549.84;11323923;26;20017;-58
2024/04/11 23:09:53;;;;;;;2.55;1.05;;;;;;;11.44;56.95;101558.91;11324535;26;20017;-59
2024/04/11 23:15:10;;;;;;;2.00;1.13;;;;;;;11.14;58.06;101558.28;11307299;26;20464;-59
2024/04/11 23:20:28;;;;;;;2.28;0.93;;;;;;;11.25;57.95;101563.97;11321807;26;20013;-58
2024/04/11 23:25:37;;;;;;;2.80;1.33;;;;;;;11.32;57.54;101562.84;11320800;26;20033;-58
2024/04/11 23:30:40;;;;;;;1.90;1.10;;;;;;;11.32;57.62;101564.59;11319567;26;20002;-58
2024/04/11 23:35:48;;;;;;;1.05;0.93;;;;;;;11.32;57.84;101566.41;11318957;26;20017;-58
2024/04/11 23:40:52;;;;;;;3.10;1.20;;;;;;;11.32;57.50;101569.84;11290661;26;20476;-59
2024/04/11 23:45:59;;;;;;;2.22;1.30;;;;;;;11.32;57.81;101568.09;11317445;26;20006;-59
2024/04/11 23:51:04;;;;;;;4.40;2.10;;;;;;;11.30;57.72;101566.44;11322324;26;20458;-58
